Aviation Digital Data Service (ADDS)

Output produced by TAFs form (1201 UTC 20 January 2017)
found at http://www.aviationweather.gov/adds/tafs/
 
KALB 201130Z 2012/2112 VRB02KT P6SM OVC025 
     FM201500 16005KT P6SM SCT025 BKN040 
     FM202300 15004KT P6SM VCSH OVC025 
     FM210400 15003KT 4SM -SHRA BR OVC015